sensor_id;sensor_type;location;lat;lon;timestamp;P1;durP1;ratioP1;P2;durP2;ratioP2
53644;SDS011;39547;45.554;12.068;2023-11-21T00:02:12;57.85;;;36.45;;
53644;SDS011;39547;45.554;12.068;2023-11-21T00:08:13;58.90;;;37.95;;
53644;SDS011;39547;45.554;12.068;2023-11-21T00:14:15;58.05;;;37.80;;
53644;SDS011;39547;45.554;12.068;2023-11-21T00:20:16;60.97;;;38.20;;
53644;SDS011;39547;45.554;12.068;2023-11-21T00:26:18;57.80;;;37.67;;
53644;SDS011;39547;45.554;12.068;2023-11-21T00:32:25;57.63;;;36.88;;
53644;SDS011;39547;45.554;12.068;2023-11-21T00:38:27;54.35;;;33.42;;
53644;SDS011;39547;45.554;12.068;2023-11-21T00:44:29;52.78;;;34.78;;
53644;SDS011;39547;45.554;12.068;2023-11-21T00:50:30;54.95;;;34.55;;
53644;SDS011;39547;45.554;12.068;2023-11-21T00:56:32;52.50;;;34.22;;
53644;SDS011;39547;45.554;12.068;2023-11-21T01:02:34;48.78;;;32.50;;
53644;SDS011;39547;45.554;12.068;2023-11-21T01:08:36;50.42;;;32.42;;
53644;SDS011;39547;45.554;12.068;2023-11-21T01:14:38;51.90;;;32.30;;
53644;SDS011;39547;45.554;12.068;2023-11-21T01:20:39;49.63;;;31.90;;
53644;SDS011;39547;45.554;12.068;2023-11-21T01:26:41;50.60;;;32.42;;
53644;SDS011;39547;45.554;12.068;2023-11-21T01:32:42;51.95;;;31.90;;
53644;SDS011;39547;45.554;12.068;2023-11-21T01:38:44;54.20;;;33.70;;
53644;SDS011;39547;45.554;12.068;2023-11-21T01:44:46;50.33;;;31.95;;
53644;SDS011;39547;45.554;12.068;2023-11-21T01:50:48;50.78;;;32.17;;
53644;SDS011;39547;45.554;12.068;2023-11-21T01:56:49;48.80;;;30.83;;
53644;SDS011;39547;45.554;12.068;2023-11-21T02:02:51;46.15;;;29.67;;
53644;SDS011;39547;45.554;12.068;2023-11-21T02:08:52;46.60;;;30.08;;
53644;SDS011;39547;45.554;12.068;2023-11-21T02:14:54;49.38;;;31.92;;
53644;SDS011;39547;45.554;12.068;2023-11-21T02:20:56;47.10;;;29.30;;
53644;SDS011;39547;45.554;12.068;2023-11-21T02:26:58;48.85;;;30.42;;
53644;SDS011;39547;45.554;12.068;2023-11-21T02:33:00;48.90;;;30.25;;
53644;SDS011;39547;45.554;12.068;2023-11-21T02:39:02;47.35;;;30.15;;
53644;SDS011;39547;45.554;12.068;2023-11-21T02:45:03;49.00;;;30.10;;
53644;SDS011;39547;45.554;12.068;2023-11-21T02:51:06;48.28;;;30.33;;
53644;SDS011;39547;45.554;12.068;2023-11-21T02:57:08;52.85;;;31.70;;
53644;SDS011;39547;45.554;12.068;2023-11-21T03:03:09;51.22;;;31.65;;
53644;SDS011;39547;45.554;12.068;2023-11-21T03:09:11;49.38;;;30.15;;
53644;SDS011;39547;45.554;12.068;2023-11-21T03:15:13;49.40;;;29.80;;
53644;SDS011;39547;45.554;12.068;2023-11-21T03:21:14;48.25;;;30.83;;
53644;SDS011;39547;45.554;12.068;2023-11-21T03:27:16;50.47;;;30.75;;
53644;SDS011;39547;45.554;12.068;2023-11-21T03:33:18;49.25;;;30.58;;
53644;SDS011;39547;45.554;12.068;2023-11-21T03:39:20;53.03;;;31.02;;
53644;SDS011;39547;45.554;12.068;2023-11-21T03:45:23;51.50;;;31.40;;
53644;SDS011;39547;45.554;12.068;2023-11-21T03:51:25;51.53;;;31.63;;
53644;SDS011;39547;45.554;12.068;2023-11-21T03:57:26;49.10;;;29.95;;
53644;SDS011;39547;45.554;12.068;2023-11-21T04:03:32;51.25;;;31.88;;
53644;SDS011;39547;45.554;12.068;2023-11-21T04:09:33;44.25;;;27.25;;
53644;SDS011;39547;45.554;12.068;2023-11-21T04:15:35;52.47;;;31.58;;
53644;SDS011;39547;45.554;12.068;2023-11-21T04:21:37;52.90;;;31.38;;
53644;SDS011;39547;45.554;12.068;2023-11-21T04:27:39;51.80;;;31.17;;
53644;SDS011;39547;45.554;12.068;2023-11-21T04:33:41;51.72;;;31.73;;
53644;SDS011;39547;45.554;12.068;2023-11-21T04:39:42;50.28;;;31.08;;
53644;SDS011;39547;45.554;12.068;2023-11-21T04:45:44;51.88;;;31.98;;
53644;SDS011;39547;45.554;12.068;2023-11-21T04:51:46;52.85;;;31.60;;
53644;SDS011;39547;45.554;12.068;2023-11-21T04:57:47;51.05;;;30.30;;
53644;SDS011;39547;45.554;12.068;2023-11-21T05:03:48;50.38;;;30.40;;
53644;SDS011;39547;45.554;12.068;2023-11-21T05:09:50;47.40;;;28.17;;
53644;SDS011;39547;45.554;12.068;2023-11-21T05:15:51;50.17;;;29.73;;
53644;SDS011;39547;45.554;12.068;2023-11-21T05:21:53;49.95;;;30.73;;
53644;SDS011;39547;45.554;12.068;2023-11-21T05:27:54;48.28;;;30.02;;
53644;SDS011;39547;45.554;12.068;2023-11-21T05:33:56;51.50;;;31.33;;
53644;SDS011;39547;45.554;12.068;2023-11-21T05:39:57;51.95;;;30.95;;
53644;SDS011;39547;45.554;12.068;2023-11-21T05:45:59;49.17;;;31.05;;
53644;SDS011;39547;45.554;12.068;2023-11-21T05:52:00;48.95;;;30.33;;
53644;SDS011;39547;45.554;12.068;2023-11-21T05:58:02;47.33;;;29.05;;
53644;SDS011;39547;45.554;12.068;2023-11-21T06:04:04;51.70;;;30.52;;
53644;SDS011;39547;45.554;12.068;2023-11-21T06:10:07;81.40;;;39.80;;
53644;SDS011;39547;45.554;12.068;2023-11-21T06:16:12;50.05;;;30.17;;
53644;SDS011;39547;45.554;12.068;2023-11-21T06:28:18;46.78;;;29.90;;
53644;SDS011;39547;45.554;12.068;2023-11-21T06:34:19;45.42;;;28.42;;
53644;SDS011;39547;45.554;12.068;2023-11-21T06:40:22;48.33;;;28.73;;
53644;SDS011;39547;45.554;12.068;2023-11-21T06:46:23;45.85;;;28.55;;
53644;SDS011;39547;45.554;12.068;2023-11-21T06:52:25;46.10;;;27.70;;
53644;SDS011;39547;45.554;12.068;2023-11-21T06:58:26;47.25;;;28.70;;
53644;SDS011;39547;45.554;12.068;2023-11-21T07:04:28;41.88;;;26.73;;
53644;SDS011;39547;45.554;12.068;2023-11-21T07:10:29;46.63;;;29.90;;
53644;SDS011;39547;45.554;12.068;2023-11-21T07:16:31;47.38;;;29.63;;
53644;SDS011;39547;45.554;12.068;2023-11-21T07:22:32;44.15;;;28.42;;
53644;SDS011;39547;45.554;12.068;2023-11-21T07:28:34;44.47;;;28.30;;
53644;SDS011;39547;45.554;12.068;2023-11-21T07:34:36;47.60;;;28.27;;
53644;SDS011;39547;45.554;12.068;2023-11-21T07:40:38;44.85;;;27.70;;
53644;SDS011;39547;45.554;12.068;2023-11-21T07:46:39;40.35;;;25.90;;
53644;SDS011;39547;45.554;12.068;2023-11-21T07:52:41;41.13;;;25.95;;
53644;SDS011;39547;45.554;12.068;2023-11-21T07:58:42;48.30;;;27.23;;
53644;SDS011;39547;45.554;12.068;2023-11-21T08:04:45;46.17;;;28.27;;
53644;SDS011;39547;45.554;12.068;2023-11-21T08:10:46;42.80;;;25.67;;
53644;SDS011;39547;45.554;12.068;2023-11-21T08:16:50;48.28;;;27.30;;
53644;SDS011;39547;45.554;12.068;2023-11-21T08:22:51;43.50;;;26.77;;
53644;SDS011;39547;45.554;12.068;2023-11-21T08:28:53;43.08;;;26.25;;
53644;SDS011;39547;45.554;12.068;2023-11-21T08:34:57;45.45;;;27.30;;
53644;SDS011;39547;45.554;12.068;2023-11-21T08:40:59;45.33;;;29.88;;
53644;SDS011;39547;45.554;12.068;2023-11-21T08:47:00;43.10;;;27.15;;
53644;SDS011;39547;45.554;12.068;2023-11-21T08:53:02;45.92;;;28.25;;
53644;SDS011;39547;45.554;12.068;2023-11-21T08:59:04;41.30;;;25.50;;
53644;SDS011;39547;45.554;12.068;2023-11-21T09:05:05;42.85;;;27.92;;
53644;SDS011;39547;45.554;12.068;2023-11-21T09:11:08;41.55;;;26.13;;
53644;SDS011;39547;45.554;12.068;2023-11-21T09:17:09;41.67;;;25.30;;
53644;SDS011;39547;45.554;12.068;2023-11-21T09:23:15;40.25;;;24.73;;
53644;SDS011;39547;45.554;12.068;2023-11-21T09:29:17;40.28;;;24.75;;
53644;SDS011;39547;45.554;12.068;2023-11-21T09:35:19;37.17;;;22.98;;
53644;SDS011;39547;45.554;12.068;2023-11-21T09:41:23;40.25;;;23.58;;
53644;SDS011;39547;45.554;12.068;2023-11-21T09:47:35;40.72;;;24.60;;
53644;SDS011;39547;45.554;12.068;2023-11-21T09:53:39;37.37;;;22.57;;
53644;SDS011;39547;45.554;12.068;2023-11-21T09:59:44;36.95;;;22.60;;
53644;SDS011;39547;45.554;12.068;2023-11-21T10:05:48;38.53;;;23.65;;
53644;SDS011;39547;45.554;12.068;2023-11-21T10:11:51;40.95;;;23.60;;
53644;SDS011;39547;45.554;12.068;2023-11-21T10:17:54;36.85;;;22.73;;
53644;SDS011;39547;45.554;12.068;2023-11-21T10:23:56;34.28;;;21.23;;
53644;SDS011;39547;45.554;12.068;2023-11-21T10:29:58;33.78;;;20.65;;
53644;SDS011;39547;45.554;12.068;2023-11-21T10:36:03;35.90;;;21.50;;
53644;SDS011;39547;45.554;12.068;2023-11-21T10:42:08;33.28;;;20.27;;
53644;SDS011;39547;45.554;12.068;2023-11-21T10:48:12;35.75;;;20.92;;
53644;SDS011;39547;45.554;12.068;2023-11-21T10:54:19;36.47;;;21.20;;
53644;SDS011;39547;45.554;12.068;2023-11-21T11:00:21;33.13;;;19.92;;
53644;SDS011;39547;45.554;12.068;2023-11-21T11:06:24;34.83;;;20.38;;
53644;SDS011;39547;45.554;12.068;2023-11-21T11:12:29;29.52;;;17.40;;
53644;SDS011;39547;45.554;12.068;2023-11-21T11:18:31;31.45;;;17.02;;
53644;SDS011;39547;45.554;12.068;2023-11-21T11:24:36;27.23;;;15.70;;
53644;SDS011;39547;45.554;12.068;2023-11-21T11:37:05;22.58;;;13.05;;
53644;SDS011;39547;45.554;12.068;2023-11-21T11:43:10;24.80;;;13.48;;
53644;SDS011;39547;45.554;12.068;2023-11-21T11:49:27;22.67;;;12.18;;
53644;SDS011;39547;45.554;12.068;2023-11-21T11:55:29;20.73;;;11.43;;
53644;SDS011;39547;45.554;12.068;2023-11-21T12:01:32;21.30;;;10.70;;
53644;SDS011;39547;45.554;12.068;2023-11-21T12:07:39;20.48;;;10.25;;
53644;SDS011;39547;45.554;12.068;2023-11-21T12:13:49;18.73;;;9.60;;
53644;SDS011;39547;45.554;12.068;2023-11-21T12:19:53;18.05;;;8.68;;
53644;SDS011;39547;45.554;12.068;2023-11-21T12:26:04;15.10;;;7.53;;
53644;SDS011;39547;45.554;12.068;2023-11-21T12:32:06;16.02;;;6.95;;
53644;SDS011;39547;45.554;12.068;2023-11-21T12:38:07;15.57;;;7.00;;
53644;SDS011;39547;45.554;12.068;2023-11-21T12:44:11;14.50;;;6.75;;
53644;SDS011;39547;45.554;12.068;2023-11-21T12:50:13;15.10;;;6.35;;
53644;SDS011;39547;45.554;12.068;2023-11-21T12:56:15;12.93;;;4.95;;
53644;SDS011;39547;45.554;12.068;2023-11-21T13:02:18;11.93;;;4.03;;
53644;SDS011;39547;45.554;12.068;2023-11-21T13:08:20;13.32;;;3.85;;
53644;SDS011;39547;45.554;12.068;2023-11-21T13:14:28;11.73;;;4.00;;
53644;SDS011;39547;45.554;12.068;2023-11-21T13:20:32;12.90;;;3.95;;
53644;SDS011;39547;45.554;12.068;2023-11-21T13:26:35;13.25;;;4.00;;
53644;SDS011;39547;45.554;12.068;2023-11-21T13:32:37;11.95;;;3.78;;
53644;SDS011;39547;45.554;12.068;2023-11-21T13:38:38;11.40;;;3.67;;
53644;SDS011;39547;45.554;12.068;2023-11-21T13:50:47;10.93;;;3.30;;
53644;SDS011;39547;45.554;12.068;2023-11-21T13:57:01;10.83;;;3.43;;
53644;SDS011;39547;45.554;12.068;2023-11-21T14:03:04;10.65;;;3.30;;
53644;SDS011;39547;45.554;12.068;2023-11-21T14:09:11;11.73;;;3.40;;
53644;SDS011;39547;45.554;12.068;2023-11-21T14:15:14;10.57;;;3.10;;
53644;SDS011;39547;45.554;12.068;2023-11-21T14:21:19;11.13;;;3.28;;
53644;SDS011;39547;45.554;12.068;2023-11-21T14:27:21;10.82;;;3.22;;
53644;SDS011;39547;45.554;12.068;2023-11-21T14:33:23;11.13;;;3.47;;
53644;SDS011;39547;45.554;12.068;2023-11-21T14:39:24;11.63;;;3.70;;
53644;SDS011;39547;45.554;12.068;2023-11-21T14:45:28;10.90;;;3.30;;
53644;SDS011;39547;45.554;12.068;2023-11-21T14:51:30;12.77;;;3.55;;
53644;SDS011;39547;45.554;12.068;2023-11-21T14:57:32;11.48;;;3.30;;
53644;SDS011;39547;45.554;12.068;2023-11-21T15:03:34;12.90;;;3.50;;
53644;SDS011;39547;45.554;12.068;2023-11-21T15:09:44;11.10;;;3.50;;
53644;SDS011;39547;45.554;12.068;2023-11-21T15:15:46;11.60;;;3.55;;
53644;SDS011;39547;45.554;12.068;2023-11-21T15:21:48;12.75;;;3.30;;
53644;SDS011;39547;45.554;12.068;2023-11-21T15:27:49;11.27;;;3.13;;
53644;SDS011;39547;45.554;12.068;2023-11-21T15:33:51;13.35;;;3.55;;
53644;SDS011;39547;45.554;12.068;2023-11-21T15:39:53;11.95;;;3.00;;
53644;SDS011;39547;45.554;12.068;2023-11-21T15:45:55;12.27;;;2.90;;
53644;SDS011;39547;45.554;12.068;2023-11-21T15:51:57;10.30;;;2.60;;
53644;SDS011;39547;45.554;12.068;2023-11-21T15:58:00;12.10;;;2.90;;
53644;SDS011;39547;45.554;12.068;2023-11-21T16:04:05;12.75;;;3.20;;
53644;SDS011;39547;45.554;12.068;2023-11-21T16:10:07;12.00;;;3.30;;
53644;SDS011;39547;45.554;12.068;2023-11-21T16:16:19;12.73;;;3.38;;
53644;SDS011;39547;45.554;12.068;2023-11-21T16:22:21;13.32;;;3.88;;
53644;SDS011;39547;45.554;12.068;2023-11-21T16:28:23;14.18;;;4.72;;
53644;SDS011;39547;45.554;12.068;2023-11-21T16:34:25;16.60;;;5.10;;
53644;SDS011;39547;45.554;12.068;2023-11-21T16:40:28;13.38;;;4.53;;
53644;SDS011;39547;45.554;12.068;2023-11-21T16:46:29;14.07;;;4.68;;
53644;SDS011;39547;45.554;12.068;2023-11-21T16:52:31;14.45;;;4.53;;
53644;SDS011;39547;45.554;12.068;2023-11-21T16:58:33;12.77;;;4.90;;
53644;SDS011;39547;45.554;12.068;2023-11-21T17:04:34;13.98;;;5.07;;
53644;SDS011;39547;45.554;12.068;2023-11-21T17:10:41;17.17;;;6.55;;
53644;SDS011;39547;45.554;12.068;2023-11-21T17:16:43;15.18;;;6.70;;
53644;SDS011;39547;45.554;12.068;2023-11-21T17:22:46;14.57;;;6.72;;
53644;SDS011;39547;45.554;12.068;2023-11-21T17:28:48;15.05;;;6.50;;
53644;SDS011;39547;45.554;12.068;2023-11-21T17:34:50;15.07;;;6.68;;
53644;SDS011;39547;45.554;12.068;2023-11-21T17:40:52;15.68;;;6.72;;
53644;SDS011;39547;45.554;12.068;2023-11-21T17:46:53;15.90;;;7.20;;
53644;SDS011;39547;45.554;12.068;2023-11-21T17:52:55;15.25;;;6.82;;
53644;SDS011;39547;45.554;12.068;2023-11-21T17:58:56;15.55;;;7.30;;
53644;SDS011;39547;45.554;12.068;2023-11-21T18:04:58;16.58;;;7.45;;
53644;SDS011;39547;45.554;12.068;2023-11-21T18:11:01;17.70;;;7.68;;
53644;SDS011;39547;45.554;12.068;2023-11-21T18:17:05;16.80;;;8.23;;
53644;SDS011;39547;45.554;12.068;2023-11-21T18:23:07;19.52;;;9.00;;
53644;SDS011;39547;45.554;12.068;2023-11-21T18:29:10;18.80;;;9.65;;
53644;SDS011;39547;45.554;12.068;2023-11-21T18:35:11;17.27;;;8.15;;
53644;SDS011;39547;45.554;12.068;2023-11-21T18:41:20;17.30;;;7.97;;
53644;SDS011;39547;45.554;12.068;2023-11-21T18:47:23;16.65;;;7.60;;
53644;SDS011;39547;45.554;12.068;2023-11-21T18:53:24;15.73;;;7.80;;
53644;SDS011;39547;45.554;12.068;2023-11-21T18:59:28;16.63;;;8.20;;
53644;SDS011;39547;45.554;12.068;2023-11-21T19:05:31;18.50;;;8.63;;
53644;SDS011;39547;45.554;12.068;2023-11-21T19:11:34;18.98;;;9.13;;
53644;SDS011;39547;45.554;12.068;2023-11-21T19:17:35;17.67;;;8.82;;
53644;SDS011;39547;45.554;12.068;2023-11-21T19:23:38;17.40;;;8.82;;
53644;SDS011;39547;45.554;12.068;2023-11-21T19:29:40;20.27;;;9.20;;
53644;SDS011;39547;45.554;12.068;2023-11-21T19:35:42;20.15;;;9.75;;
53644;SDS011;39547;45.554;12.068;2023-11-21T19:41:43;19.15;;;9.57;;
53644;SDS011;39547;45.554;12.068;2023-11-21T19:47:45;19.33;;;9.75;;
53644;SDS011;39547;45.554;12.068;2023-11-21T19:53:46;20.77;;;10.88;;
53644;SDS011;39547;45.554;12.068;2023-11-21T19:59:48;21.80;;;11.82;;
53644;SDS011;39547;45.554;12.068;2023-11-21T20:05:51;23.48;;;12.95;;
53644;SDS011;39547;45.554;12.068;2023-11-21T20:11:54;25.35;;;14.27;;
53644;SDS011;39547;45.554;12.068;2023-11-21T20:17:58;22.95;;;14.05;;
53644;SDS011;39547;45.554;12.068;2023-11-21T20:24:00;29.25;;;16.98;;
53644;SDS011;39547;45.554;12.068;2023-11-21T20:30:02;27.05;;;16.00;;
53644;SDS011;39547;45.554;12.068;2023-11-21T20:36:04;30.30;;;18.73;;
53644;SDS011;39547;45.554;12.068;2023-11-21T20:42:06;32.15;;;19.17;;
53644;SDS011;39547;45.554;12.068;2023-11-21T20:48:10;32.47;;;19.83;;
53644;SDS011;39547;45.554;12.068;2023-11-21T20:54:12;31.15;;;19.30;;
53644;SDS011;39547;45.554;12.068;2023-11-21T21:00:14;33.42;;;19.70;;
53644;SDS011;39547;45.554;12.068;2023-11-21T21:06:18;29.48;;;18.77;;
53644;SDS011;39547;45.554;12.068;2023-11-21T21:12:22;30.55;;;18.88;;
53644;SDS011;39547;45.554;12.068;2023-11-21T21:18:23;30.40;;;19.30;;
53644;SDS011;39547;45.554;12.068;2023-11-21T21:24:27;32.03;;;20.08;;
53644;SDS011;39547;45.554;12.068;2023-11-21T21:30:29;29.77;;;18.42;;
53644;SDS011;39547;45.554;12.068;2023-11-21T21:36:30;32.30;;;20.65;;
53644;SDS011;39547;45.554;12.068;2023-11-21T21:42:32;30.50;;;19.27;;
53644;SDS011;39547;45.554;12.068;2023-11-21T21:48:34;29.52;;;18.42;;
53644;SDS011;39547;45.554;12.068;2023-11-21T21:54:38;32.55;;;19.10;;
53644;SDS011;39547;45.554;12.068;2023-11-21T22:00:40;32.75;;;19.85;;
53644;SDS011;39547;45.554;12.068;2023-11-21T22:06:42;31.45;;;19.42;;
53644;SDS011;39547;45.554;12.068;2023-11-21T22:12:44;32.45;;;19.38;;
53644;SDS011;39547;45.554;12.068;2023-11-21T22:18:45;28.52;;;17.27;;
53644;SDS011;39547;45.554;12.068;2023-11-21T22:24:47;26.60;;;16.65;;
53644;SDS011;39547;45.554;12.068;2023-11-21T22:30:49;28.63;;;17.25;;
53644;SDS011;39547;45.554;12.068;2023-11-21T22:36:50;28.55;;;16.85;;
53644;SDS011;39547;45.554;12.068;2023-11-21T22:42:53;26.67;;;15.57;;
53644;SDS011;39547;45.554;12.068;2023-11-21T22:48:54;27.55;;;16.25;;
53644;SDS011;39547;45.554;12.068;2023-11-21T22:54:56;27.15;;;16.17;;
53644;SDS011;39547;45.554;12.068;2023-11-21T23:00:57;26.33;;;16.15;;
53644;SDS011;39547;45.554;12.068;2023-11-21T23:06:59;26.05;;;15.85;;
53644;SDS011;39547;45.554;12.068;2023-11-21T23:13:01;25.17;;;14.68;;
53644;SDS011;39547;45.554;12.068;2023-11-21T23:19:02;26.48;;;15.30;;
53644;SDS011;39547;45.554;12.068;2023-11-21T23:25:04;23.70;;;14.20;;
53644;SDS011;39547;45.554;12.068;2023-11-21T23:31:06;24.58;;;14.63;;
53644;SDS011;39547;45.554;12.068;2023-11-21T23:37:09;24.17;;;13.85;;
53644;SDS011;39547;45.554;12.068;2023-11-21T23:43:11;23.65;;;14.02;;
53644;SDS011;39547;45.554;12.068;2023-11-21T23:49:12;22.90;;;13.43;;
53644;SDS011;39547;45.554;12.068;2023-11-21T23:55:14;22.83;;;13.63;;
